Terminal Aerodrome Forecast
Issued by NWS

Home | Current Version | Previous Version | Text Only | Print | Product List | Glossary On
Versions: 1 2 3 4 5 6 7 8 9 10 11 12 13 14 15 16 17 18 19 20 21 22 23 24 25 26 27 28 29 30 31 32 33
000
FTUS41 KGYX 290300 AAA
TAFLEB
TAF AMD
KLEB 290308Z 2903/2924 32006KT P6SM SCT020 BKN040
      TEMPO 2907/2911 3SM BR BKN020
     FM291300 30008KT P6SM SCT040=

USA.gov is the U.S. government's official web portal to all federal, state and local government web resources and services.